Terminal Aerodrome Forecast
Issued by NWS Jacksonville, FL

Home | Current Version | Previous Version | Text Only | Print | Product List | Glossary On
Versions: 1 2 3 4 5 6 7 8 9 10 11 12 13 14 15 16 17 18 19 20 21 22 23 24 25 26 27 28 29 30 31 32 33 34 35 36 37
000
FTUS42 KJAX 021921 AAA
TAFSSI
TAF AMD
KSSI 021921Z 0219/0318 07007KT P6SM VCTS SCT025CB BKN050
      TEMPO 0221/0224 VRB15G25KT 2SM TSRA SCT015 OVC025CB
     FM030100 23003KT P6SM VCSH SCT040 BKN100 BKN250
     FM031200 32007KT P6SM VCSH BKN040 OVC100=

USA.gov is the U.S. government's official web portal to all federal, state and local government web resources and services.